Main page
METAR-TAF:

METAR-TAF

Airports :

Norwich Airport

Norwich, England

latitude: 52-38N, longitude: 001-18E, elevation: 14 m

Current weather observation

The report was made 39 minutes ago, at 05:20 UTC
Wind 2 kt from variable directions
Temperature 16°C
Humidity 94%
Pressure 1011 hPa
Visibility: 2700 m
Broken clouds at a height of 200 ft
Overcast at a height of 600 ft
mist

METAR: EGSH 260520Z VRB02KT 2700 BR BKN002 OVC006 16/15 Q1011

Time: 06:59 (05:59 UTC)

Forecast

The report was made 56 minutes ago, at 05:03 UTC
Forecast valid from 26 at 06 UTC to 26 at 15 UTC
Wind 5 kt from the South
Visibility 10 km or more
Scattered clouds at a height of 700 ft
Probability 30% :
Temporary
from 26 at 06 UTC to 26 at 08 UTC
Visibility: 2000 m
Broken clouds at a height of 200 ft
mist
Probability 30% :
Temporary
from 26 at 08 UTC to 26 at 09 UTC
Visibility: 6000 m
Broken clouds at a height of 700 ft

TAF: EGSH 260503Z 2606/2615 19005KT 9999 SCT007 PROB30 TEMPO 2606/2608 2000 BR BKN002 PROB30 TEMPO 2608/2609 6000 BKN007

Weather observations and forecasts of more than 4000 airports (METAR and TAF reports).

The available stations are represented by yellow and red dots on the map.

Hover mouse over dot to see the name of the station.

Then click to see weather observations and forecasts.

To change the map : click on the green buttons with a black cross to zoom in, on the green button with a dash to zoom out, or on the green arrows for adjacent maps.


METAR-TAF: